sensor_id;sensor_type;location;lat;lon;timestamp;temperature;humidity
71291;DHT22;59073;51.994;4.448;2023-09-19T00:01:42;16.40;69.48
71291;DHT22;59073;51.994;4.448;2023-09-19T00:04:11;16.56;69.29
71291;DHT22;59073;51.994;4.448;2023-09-19T00:06:38;16.59;69.49
71291;DHT22;59073;51.994;4.448;2023-09-19T00:09:04;16.60;68.98
71291;DHT22;59073;51.994;4.448;2023-09-19T00:11:29;16.50;69.31
71291;DHT22;59073;51.994;4.448;2023-09-19T00:13:55;16.53;69.09
71291;DHT22;59073;51.994;4.448;2023-09-19T00:16:20;16.66;68.24
71291;DHT22;59073;51.994;4.448;2023-09-19T00:18:46;16.85;68.46
71291;DHT22;59073;51.994;4.448;2023-09-19T00:21:12;16.74;69.00
71291;DHT22;59073;51.994;4.448;2023-09-19T00:23:38;16.77;68.63
71291;DHT22;59073;51.994;4.448;2023-09-19T00:26:03;16.76;69.33
71291;DHT22;59073;51.994;4.448;2023-09-19T00:28:29;16.66;68.59
71291;DHT22;59073;51.994;4.448;2023-09-19T00:30:55;16.70;69.54
71291;DHT22;59073;51.994;4.448;2023-09-19T00:33:21;16.62;69.38
71291;DHT22;59073;51.994;4.448;2023-09-19T00:35:51;16.53;70.44
71291;DHT22;59073;51.994;4.448;2023-09-19T00:38:20;16.46;70.40
71291;DHT22;59073;51.994;4.448;2023-09-19T00:40:48;16.40;72.10
71291;DHT22;59073;51.994;4.448;2023-09-19T00:43:15;16.49;71.26
71291;DHT22;59073;51.994;4.448;2023-09-19T00:45:44;16.48;72.50
71291;DHT22;59073;51.994;4.448;2023-09-19T00:48:11;16.34;72.63
71291;DHT22;59073;51.994;4.448;2023-09-19T00:50:38;16.29;72.51
71291;DHT22;59073;51.994;4.448;2023-09-19T00:53:07;16.23;72.22
71291;DHT22;59073;51.994;4.448;2023-09-19T00:55:34;16.29;72.23
71291;DHT22;59073;51.994;4.448;2023-09-19T00:58:00;16.25;73.14
71291;DHT22;59073;51.994;4.448;2023-09-19T01:00:26;16.19;73.60
71291;DHT22;59073;51.994;4.448;2023-09-19T01:02:52;16.15;72.71
71291;DHT22;59073;51.994;4.448;2023-09-19T01:05:17;16.15;72.26
71291;DHT22;59073;51.994;4.448;2023-09-19T01:07:44;16.12;74.23
71291;DHT22;59073;51.994;4.448;2023-09-19T01:10:18;16.01;74.20
71291;DHT22;59073;51.994;4.448;2023-09-19T01:21:18;15.94;74.90
71291;DHT22;59073;51.994;4.448;2023-09-19T01:24:10;15.92;74.25
71291;DHT22;59073;51.994;4.448;2023-09-19T01:27:02;16.16;74.55
71291;DHT22;59073;51.994;4.448;2023-09-19T01:29:50;16.29;74.36
71291;DHT22;59073;51.994;4.448;2023-09-19T01:32:18;16.32;74.06
71291;DHT22;59073;51.994;4.448;2023-09-19T01:34:50;16.16;75.35
71291;DHT22;59073;51.994;4.448;2023-09-19T01:37:19;16.22;75.60
71291;DHT22;59073;51.994;4.448;2023-09-19T01:39:53;16.29;75.33
71291;DHT22;59073;51.994;4.448;2023-09-19T01:42:35;16.28;75.62
71291;DHT22;59073;51.994;4.448;2023-09-19T01:50:49;16.06;75.51
71291;DHT22;59073;51.994;4.448;2023-09-19T01:53:27;16.04;75.57
71291;DHT22;59073;51.994;4.448;2023-09-19T01:55:54;15.97;74.55
71291;DHT22;59073;51.994;4.448;2023-09-19T01:59:34;15.87;74.77
71291;DHT22;59073;51.994;4.448;2023-09-19T02:01:28;15.84;75.01
71291;DHT22;59073;51.994;4.448;2023-09-19T02:03:54;15.81;75.14
71291;DHT22;59073;51.994;4.448;2023-09-19T02:06:21;15.77;75.44
71291;DHT22;59073;51.994;4.448;2023-09-19T02:08:47;15.75;75.44
71291;DHT22;59073;51.994;4.448;2023-09-19T02:11:13;15.78;75.26
71291;DHT22;59073;51.994;4.448;2023-09-19T02:13:39;15.80;75.52
71291;DHT22;59073;51.994;4.448;2023-09-19T02:16:06;15.80;74.97
71291;DHT22;59073;51.994;4.448;2023-09-19T02:18:34;15.68;75.87
71291;DHT22;59073;51.994;4.448;2023-09-19T02:21:03;15.67;75.34
71291;DHT22;59073;51.994;4.448;2023-09-19T02:23:37;15.71;75.13
71291;DHT22;59073;51.994;4.448;2023-09-19T02:26:03;15.74;75.27
71291;DHT22;59073;51.994;4.448;2023-09-19T02:28:31;15.72;75.25
71291;DHT22;59073;51.994;4.448;2023-09-19T02:30:58;15.70;75.39
71291;DHT22;59073;51.994;4.448;2023-09-19T02:33:23;15.78;75.43
71291;DHT22;59073;51.994;4.448;2023-09-19T02:35:49;15.82;75.50
71291;DHT22;59073;51.994;4.448;2023-09-19T02:38:15;15.81;76.03
71291;DHT22;59073;51.994;4.448;2023-09-19T02:40:46;15.80;76.18
71291;DHT22;59073;51.994;4.448;2023-09-19T02:43:11;15.92;75.92
71291;DHT22;59073;51.994;4.448;2023-09-19T02:45:36;15.94;75.75
71291;DHT22;59073;51.994;4.448;2023-09-19T02:48:02;15.91;75.59
71291;DHT22;59073;51.994;4.448;2023-09-19T02:50:27;16.00;75.15
71291;DHT22;59073;51.994;4.448;2023-09-19T02:52:53;16.06;74.94
71291;DHT22;59073;51.994;4.448;2023-09-19T02:55:19;16.16;74.88
71291;DHT22;59073;51.994;4.448;2023-09-19T02:57:48;16.16;74.86
71291;DHT22;59073;51.994;4.448;2023-09-19T03:00:15;16.09;74.81
71291;DHT22;59073;51.994;4.448;2023-09-19T03:02:41;16.16;75.10
71291;DHT22;59073;51.994;4.448;2023-09-19T03:05:07;16.30;74.63
71291;DHT22;59073;51.994;4.448;2023-09-19T03:07:33;16.45;74.67
71291;DHT22;59073;51.994;4.448;2023-09-19T03:09:59;16.49;75.23
71291;DHT22;59073;51.994;4.448;2023-09-19T03:12:28;16.60;74.45
71291;DHT22;59073;51.994;4.448;2023-09-19T03:14:53;16.53;74.53
71291;DHT22;59073;51.994;4.448;2023-09-19T03:17:18;16.40;74.81
71291;DHT22;59073;51.994;4.448;2023-09-19T03:19:45;16.33;74.98
71291;DHT22;59073;51.994;4.448;2023-09-19T03:22:12;16.32;75.05
71291;DHT22;59073;51.994;4.448;2023-09-19T03:24:38;16.39;74.24
71291;DHT22;59073;51.994;4.448;2023-09-19T03:27:03;16.42;73.43
71291;DHT22;59073;51.994;4.448;2023-09-19T03:29:29;16.32;74.20
71291;DHT22;59073;51.994;4.448;2023-09-19T03:31:54;16.38;74.17
71291;DHT22;59073;51.994;4.448;2023-09-19T03:34:20;16.28;74.69
71291;DHT22;59073;51.994;4.448;2023-09-19T03:36:46;16.25;74.87
71291;DHT22;59073;51.994;4.448;2023-09-19T03:39:11;16.21;75.32
71291;DHT22;59073;51.994;4.448;2023-09-19T03:41:37;16.15;75.53
71291;DHT22;59073;51.994;4.448;2023-09-19T03:44:02;16.05;75.54
71291;DHT22;59073;51.994;4.448;2023-09-19T03:46:28;16.02;75.83
71291;DHT22;59073;51.994;4.448;2023-09-19T03:48:53;16.06;75.84
71291;DHT22;59073;51.994;4.448;2023-09-19T03:51:20;16.13;75.47
71291;DHT22;59073;51.994;4.448;2023-09-19T03:53:45;16.21;75.50
71291;DHT22;59073;51.994;4.448;2023-09-19T03:56:11;16.23;75.55
71291;DHT22;59073;51.994;4.448;2023-09-19T03:58:37;16.25;76.01
71291;DHT22;59073;51.994;4.448;2023-09-19T04:01:06;16.28;76.24
71291;DHT22;59073;51.994;4.448;2023-09-19T04:03:34;16.23;76.49
71291;DHT22;59073;51.994;4.448;2023-09-19T04:06:10;16.26;76.65
71291;DHT22;59073;51.994;4.448;2023-09-19T04:08:36;16.18;77.16
71291;DHT22;59073;51.994;4.448;2023-09-19T04:11:01;16.15;77.44
71291;DHT22;59073;51.994;4.448;2023-09-19T04:13:27;16.08;77.80
71291;DHT22;59073;51.994;4.448;2023-09-19T04:15:52;16.02;77.81
71291;DHT22;59073;51.994;4.448;2023-09-19T04:18:17;16.06;77.92
71291;DHT22;59073;51.994;4.448;2023-09-19T04:20:48;16.13;77.76
71291;DHT22;59073;51.994;4.448;2023-09-19T04:23:14;16.06;77.93
71291;DHT22;59073;51.994;4.448;2023-09-19T04:25:40;16.06;77.94
71291;DHT22;59073;51.994;4.448;2023-09-19T04:28:06;16.13;77.72
71291;DHT22;59073;51.994;4.448;2023-09-19T04:30:31;16.08;77.87
71291;DHT22;59073;51.994;4.448;2023-09-19T04:32:57;16.12;77.97
71291;DHT22;59073;51.994;4.448;2023-09-19T04:35:22;15.95;78.70
71291;DHT22;59073;51.994;4.448;2023-09-19T04:37:47;15.81;79.19
71291;DHT22;59073;51.994;4.448;2023-09-19T04:40:13;15.92;79.16
71291;DHT22;59073;51.994;4.448;2023-09-19T04:42:45;15.92;79.28
71291;DHT22;59073;51.994;4.448;2023-09-19T04:45:18;15.88;79.21
71291;DHT22;59073;51.994;4.448;2023-09-19T04:47:45;15.90;79.32
71291;DHT22;59073;51.994;4.448;2023-09-19T04:50:11;15.91;79.45
71291;DHT22;59073;51.994;4.448;2023-09-19T04:52:39;15.75;79.59
71291;DHT22;59073;51.994;4.448;2023-09-19T04:55:05;15.80;79.88
71291;DHT22;59073;51.994;4.448;2023-09-19T04:57:30;15.87;79.60
71291;DHT22;59073;51.994;4.448;2023-09-19T04:59:57;15.84;79.64
71291;DHT22;59073;51.994;4.448;2023-09-19T05:02:22;15.90;79.59
71291;DHT22;59073;51.994;4.448;2023-09-19T05:04:48;15.90;79.62
71291;DHT22;59073;51.994;4.448;2023-09-19T05:07:13;15.82;80.07
71291;DHT22;59073;51.994;4.448;2023-09-19T05:09:38;15.82;80.08
71291;DHT22;59073;51.994;4.448;2023-09-19T05:12:04;15.85;80.06
71291;DHT22;59073;51.994;4.448;2023-09-19T05:14:30;15.91;79.62
71291;DHT22;59073;51.994;4.448;2023-09-19T05:16:55;15.78;79.50
71291;DHT22;59073;51.994;4.448;2023-09-19T05:19:20;15.82;79.43
71291;DHT22;59073;51.994;4.448;2023-09-19T05:21:46;15.82;79.69
71291;DHT22;59073;51.994;4.448;2023-09-19T05:24:12;15.77;79.89
71291;DHT22;59073;51.994;4.448;2023-09-19T05:26:39;15.81;79.32
71291;DHT22;59073;51.994;4.448;2023-09-19T05:29:05;15.71;79.70
71291;DHT22;59073;51.994;4.448;2023-09-19T05:31:33;15.71;79.47
71291;DHT22;59073;51.994;4.448;2023-09-19T05:34:01;15.70;79.75
71291;DHT22;59073;51.994;4.448;2023-09-19T05:36:27;15.70;79.81
71291;DHT22;59073;51.994;4.448;2023-09-19T05:38:55;15.80;79.39
71291;DHT22;59073;51.994;4.448;2023-09-19T05:41:20;15.84;79.53
71291;DHT22;59073;51.994;4.448;2023-09-19T05:43:49;15.78;79.69
71291;DHT22;59073;51.994;4.448;2023-09-19T05:46:15;15.77;79.85
71291;DHT22;59073;51.994;4.448;2023-09-19T05:48:41;15.82;80.02
71291;DHT22;59073;51.994;4.448;2023-09-19T05:51:07;15.87;80.14
71291;DHT22;59073;51.994;4.448;2023-09-19T05:53:32;15.85;79.99
71291;DHT22;59073;51.994;4.448;2023-09-19T05:55:58;15.88;80.43
71291;DHT22;59073;51.994;4.448;2023-09-19T05:58:23;15.92;80.18
71291;DHT22;59073;51.994;4.448;2023-09-19T06:00:49;15.92;79.96
71291;DHT22;59073;51.994;4.448;2023-09-19T06:03:15;16.02;80.22
71291;DHT22;59073;51.994;4.448;2023-09-19T06:05:42;15.98;79.83
71291;DHT22;59073;51.994;4.448;2023-09-19T06:08:08;16.00;79.88
71291;DHT22;59073;51.994;4.448;2023-09-19T06:10:34;16.06;79.76
71291;DHT22;59073;51.994;4.448;2023-09-19T06:13:02;16.02;79.96
71291;DHT22;59073;51.994;4.448;2023-09-19T06:15:29;16.06;80.20
71291;DHT22;59073;51.994;4.448;2023-09-19T06:17:58;16.06;79.85
71291;DHT22;59073;51.994;4.448;2023-09-19T06:20:25;16.09;79.71
71291;DHT22;59073;51.994;4.448;2023-09-19T06:22:52;16.13;79.97
71291;DHT22;59073;51.994;4.448;2023-09-19T06:25:18;16.23;79.89
71291;DHT22;59073;51.994;4.448;2023-09-19T06:27:47;16.26;79.32
71291;DHT22;59073;51.994;4.448;2023-09-19T06:30:13;16.34;79.28
71291;DHT22;59073;51.994;4.448;2023-09-19T06:32:43;16.45;78.85
71291;DHT22;59073;51.994;4.448;2023-09-19T06:35:12;16.60;78.44
71291;DHT22;59073;51.994;4.448;2023-09-19T06:37:39;16.57;78.56
71291;DHT22;59073;51.994;4.448;2023-09-19T06:40:12;16.63;78.00
71291;DHT22;59073;51.994;4.448;2023-09-19T06:42:45;16.73;77.32
71291;DHT22;59073;51.994;4.448;2023-09-19T06:45:12;16.93;77.44
71291;DHT22;59073;51.994;4.448;2023-09-19T06:47:39;16.94;77.32
71291;DHT22;59073;51.994;4.448;2023-09-19T06:50:05;16.94;76.92
71291;DHT22;59073;51.994;4.448;2023-09-19T06:52:34;17.04;77.50
71291;DHT22;59073;51.994;4.448;2023-09-19T06:55:00;17.22;76.79
71291;DHT22;59073;51.994;4.448;2023-09-19T06:57:28;17.12;77.71
71291;DHT22;59073;51.994;4.448;2023-09-19T06:59:54;17.22;77.38
71291;DHT22;59073;51.994;4.448;2023-09-19T07:02:19;17.41;77.07
71291;DHT22;59073;51.994;4.448;2023-09-19T07:04:47;17.32;76.42
71291;DHT22;59073;51.994;4.448;2023-09-19T07:07:12;17.28;76.47
71291;DHT22;59073;51.994;4.448;2023-09-19T07:09:39;17.20;76.80
71291;DHT22;59073;51.994;4.448;2023-09-19T07:12:05;17.27;77.03
71291;DHT22;59073;51.994;4.448;2023-09-19T07:14:30;17.28;76.53
71291;DHT22;59073;51.994;4.448;2023-09-19T07:16:56;17.53;76.31
71291;DHT22;59073;51.994;4.448;2023-09-19T07:19:21;17.48;76.58
71291;DHT22;59073;51.994;4.448;2023-09-19T07:21:47;17.28;76.96
71291;DHT22;59073;51.994;4.448;2023-09-19T07:24:12;17.56;77.79
71291;DHT22;59073;51.994;4.448;2023-09-19T07:26:38;17.53;76.40
71291;DHT22;59073;51.994;4.448;2023-09-19T07:29:05;17.56;76.79
71291;DHT22;59073;51.994;4.448;2023-09-19T07:31:34;17.83;76.21
71291;DHT22;59073;51.994;4.448;2023-09-19T07:33:59;17.71;75.96
71291;DHT22;59073;51.994;4.448;2023-09-19T07:36:25;17.69;77.02
71291;DHT22;59073;51.994;4.448;2023-09-19T07:38:50;17.72;76.71
71291;DHT22;59073;51.994;4.448;2023-09-19T07:41:15;17.78;76.85
71291;DHT22;59073;51.994;4.448;2023-09-19T07:43:41;17.82;75.76
71291;DHT22;59073;51.994;4.448;2023-09-19T07:46:07;17.68;75.48
71291;DHT22;59073;51.994;4.448;2023-09-19T07:48:35;17.62;75.31
71291;DHT22;59073;51.994;4.448;2023-09-19T07:51:05;17.76;76.74
71291;DHT22;59073;51.994;4.448;2023-09-19T07:53:32;17.96;74.92
71291;DHT22;59073;51.994;4.448;2023-09-19T07:56:07;18.12;74.32
71291;DHT22;59073;51.994;4.448;2023-09-19T07:58:34;18.20;74.76
71291;DHT22;59073;51.994;4.448;2023-09-19T08:01:08;18.24;74.06
71291;DHT22;59073;51.994;4.448;2023-09-19T08:03:34;18.29;74.64
71291;DHT22;59073;51.994;4.448;2023-09-19T08:06:00;18.30;73.16
71291;DHT22;59073;51.994;4.448;2023-09-19T08:08:26;18.41;74.19
71291;DHT22;59073;51.994;4.448;2023-09-19T08:10:56;18.68;73.84
71291;DHT22;59073;51.994;4.448;2023-09-19T08:13:25;18.57;73.02
71291;DHT22;59073;51.994;4.448;2023-09-19T08:15:52;18.52;73.39
71291;DHT22;59073;51.994;4.448;2023-09-19T08:18:20;18.44;73.52
71291;DHT22;59073;51.994;4.448;2023-09-19T08:20:52;18.61;73.18
71291;DHT22;59073;51.994;4.448;2023-09-19T08:23:18;18.58;72.54
71291;DHT22;59073;51.994;4.448;2023-09-19T08:25:45;18.21;73.22
71291;DHT22;59073;51.994;4.448;2023-09-19T08:28:11;18.23;73.90
71291;DHT22;59073;51.994;4.448;2023-09-19T08:30:39;18.47;74.66
71291;DHT22;59073;51.994;4.448;2023-09-19T08:33:06;18.21;72.80
71291;DHT22;59073;51.994;4.448;2023-09-19T08:35:33;17.99;74.02
71291;DHT22;59073;51.994;4.448;2023-09-19T08:37:58;17.69;74.48
71291;DHT22;59073;51.994;4.448;2023-09-19T08:40:30;17.55;74.97
71291;DHT22;59073;51.994;4.448;2023-09-19T08:42:59;17.46;75.28
71291;DHT22;59073;51.994;4.448;2023-09-19T08:45:26;17.51;75.04
71291;DHT22;59073;51.994;4.448;2023-09-19T08:50:33;17.59;75.30
71291;DHT22;59073;51.994;4.448;2023-09-19T08:53:01;17.85;76.02
71291;DHT22;59073;51.994;4.448;2023-09-19T08:55:29;18.00;74.77
71291;DHT22;59073;51.994;4.448;2023-09-19T08:58:03;17.96;75.13
71291;DHT22;59073;51.994;4.448;2023-09-19T09:00:30;18.02;74.94
71291;DHT22;59073;51.994;4.448;2023-09-19T09:02:57;18.37;74.77
71291;DHT22;59073;51.994;4.448;2023-09-19T09:05:24;18.64;74.82
71291;DHT22;59073;51.994;4.448;2023-09-19T09:07:52;18.67;73.71
71291;DHT22;59073;51.994;4.448;2023-09-19T09:10:21;18.82;73.93
71291;DHT22;59073;51.994;4.448;2023-09-19T09:12:53;18.96;73.30
71291;DHT22;59073;51.994;4.448;2023-09-19T09:15:24;18.75;72.42
71291;DHT22;59073;51.994;4.448;2023-09-19T09:17:50;18.88;72.93
71291;DHT22;59073;51.994;4.448;2023-09-19T09:20:18;19.06;73.74
71291;DHT22;59073;51.994;4.448;2023-09-19T09:22:54;18.91;72.40
71291;DHT22;59073;51.994;4.448;2023-09-19T09:25:21;18.84;73.00
71291;DHT22;59073;51.994;4.448;2023-09-19T09:28:00;18.88;73.07
71291;DHT22;59073;51.994;4.448;2023-09-19T09:30:36;18.95;72.58
71291;DHT22;59073;51.994;4.448;2023-09-19T09:33:12;19.27;73.30
71291;DHT22;59073;51.994;4.448;2023-09-19T09:35:58;19.69;73.34
71291;DHT22;59073;51.994;4.448;2023-09-19T09:38:29;20.00;71.48
71291;DHT22;59073;51.994;4.448;2023-09-19T09:40:59;19.66;69.96
71291;DHT22;59073;51.994;4.448;2023-09-19T09:48:59;19.39;71.83
71291;DHT22;59073;51.994;4.448;2023-09-19T09:51:58;19.50;72.28
71291;DHT22;59073;51.994;4.448;2023-09-19T09:54:29;19.52;72.35
71291;DHT22;59073;51.994;4.448;2023-09-19T09:57:10;19.22;71.67
71291;DHT22;59073;51.994;4.448;2023-09-19T09:59:58;19.45;72.28
71291;DHT22;59073;51.994;4.448;2023-09-19T10:02:40;19.67;71.09
71291;DHT22;59073;51.994;4.448;2023-09-19T10:07:50;19.26;71.58
71291;DHT22;59073;51.994;4.448;2023-09-19T10:10:34;19.23;71.68
71291;DHT22;59073;51.994;4.448;2023-09-19T10:13:07;19.26;72.14
71291;DHT22;59073;51.994;4.448;2023-09-19T10:15:33;19.34;72.05
71291;DHT22;59073;51.994;4.448;2023-09-19T10:18:04;19.47;71.56
71291;DHT22;59073;51.994;4.448;2023-09-19T10:20:30;19.53;71.44
71291;DHT22;59073;51.994;4.448;2023-09-19T10:23:07;19.67;71.85
71291;DHT22;59073;51.994;4.448;2023-09-19T10:25:39;19.75;72.27
71291;DHT22;59073;51.994;4.448;2023-09-19T10:28:10;20.02;70.26
71291;DHT22;59073;51.994;4.448;2023-09-19T10:30:46;20.32;71.19
71291;DHT22;59073;51.994;4.448;2023-09-19T10:33:21;20.59;70.57
71291;DHT22;59073;51.994;4.448;2023-09-19T10:35:50;20.04;69.73
71291;DHT22;59073;51.994;4.448;2023-09-19T10:38:24;19.54;71.22
71291;DHT22;59073;51.994;4.448;2023-09-19T10:40:54;19.29;72.07
71291;DHT22;59073;51.994;4.448;2023-09-19T10:43:22;19.39;72.68
71291;DHT22;59073;51.994;4.448;2023-09-19T10:45:50;19.45;71.79
71291;DHT22;59073;51.994;4.448;2023-09-19T10:48:18;19.64;72.20
71291;DHT22;59073;51.994;4.448;2023-09-19T10:50:58;19.83;70.25
71291;DHT22;59073;51.994;4.448;2023-09-19T10:53:56;19.57;69.65
71291;DHT22;59073;51.994;4.448;2023-09-19T10:56:39;19.70;70.98
71291;DHT22;59073;51.994;4.448;2023-09-19T10:59:10;19.75;71.54
71291;DHT22;59073;51.994;4.448;2023-09-19T11:01:45;19.90;70.19
71291;DHT22;59073;51.994;4.448;2023-09-19T11:04:30;19.77;71.31
71291;DHT22;59073;51.994;4.448;2023-09-19T11:07:10;19.74;70.77
71291;DHT22;59073;51.994;4.448;2023-09-19T11:09:50;19.61;71.47
71291;DHT22;59073;51.994;4.448;2023-09-19T11:14:59;19.50;71.69
71291;DHT22;59073;51.994;4.448;2023-09-19T11:17:43;19.54;71.79
71291;DHT22;59073;51.994;4.448;2023-09-19T11:20:19;19.56;70.68
71291;DHT22;59073;51.994;4.448;2023-09-19T11:30:33;19.46;71.92
71291;DHT22;59073;51.994;4.448;2023-09-19T11:33:18;19.37;71.63
71291;DHT22;59073;51.994;4.448;2023-09-19T11:36:07;19.46;71.52
71291;DHT22;59073;51.994;4.448;2023-09-19T11:43:47;19.02;74.50
71291;DHT22;59073;51.994;4.448;2023-09-19T11:46:13;18.92;74.11
71291;DHT22;59073;51.994;4.448;2023-09-19T11:48:47;19.06;74.61
71291;DHT22;59073;51.994;4.448;2023-09-19T11:51:20;19.12;73.70
71291;DHT22;59073;51.994;4.448;2023-09-19T11:53:55;19.47;73.35
71291;DHT22;59073;51.994;4.448;2023-09-19T11:56:25;19.63;73.52
71291;DHT22;59073;51.994;4.448;2023-09-19T11:58:55;19.97;71.81
71291;DHT22;59073;51.994;4.448;2023-09-19T12:01:24;20.18;70.92
71291;DHT22;59073;51.994;4.448;2023-09-19T12:03:56;20.39;71.77
71291;DHT22;59073;51.994;4.448;2023-09-19T12:06:24;20.24;70.47
71291;DHT22;59073;51.994;4.448;2023-09-19T12:08:49;20.28;71.06
71291;DHT22;59073;51.994;4.448;2023-09-19T12:11:20;20.33;70.47
71291;DHT22;59073;51.994;4.448;2023-09-19T12:13:47;20.07;70.04
71291;DHT22;59073;51.994;4.448;2023-09-19T12:16:18;20.12;70.97
71291;DHT22;59073;51.994;4.448;2023-09-19T12:18:48;20.20;70.83
71291;DHT22;59073;51.994;4.448;2023-09-19T12:21:26;20.32;71.30
71291;DHT22;59073;51.994;4.448;2023-09-19T12:26:46;20.14;71.44
71291;DHT22;59073;51.994;4.448;2023-09-19T12:29:21;19.92;71.67
71291;DHT22;59073;51.994;4.448;2023-09-19T12:31:54;19.92;72.71
71291;DHT22;59073;51.994;4.448;2023-09-19T12:34:27;19.64;71.88
71291;DHT22;59073;51.994;4.448;2023-09-19T12:39:37;19.85;72.56
71291;DHT22;59073;51.994;4.448;2023-09-19T12:42:02;20.21;72.58
71291;DHT22;59073;51.994;4.448;2023-09-19T12:44:30;20.31;71.02
71291;DHT22;59073;51.994;4.448;2023-09-19T12:46:55;20.41;71.40
71291;DHT22;59073;51.994;4.448;2023-09-19T12:49:24;20.33;71.63
71291;DHT22;59073;51.994;4.448;2023-09-19T12:51:54;20.12;72.00
71291;DHT22;59073;51.994;4.448;2023-09-19T12:54:20;20.14;72.38
71291;DHT22;59073;51.994;4.448;2023-09-19T12:56:47;19.87;72.32
71291;DHT22;59073;51.994;4.448;2023-09-19T12:59:14;20.00;72.53
71291;DHT22;59073;51.994;4.448;2023-09-19T13:01:41;19.92;72.44
71291;DHT22;59073;51.994;4.448;2023-09-19T13:04:20;19.85;72.39
71291;DHT22;59073;51.994;4.448;2023-09-19T13:06:53;19.61;72.85
71291;DHT22;59073;51.994;4.448;2023-09-19T13:09:22;19.43;73.43
71291;DHT22;59073;51.994;4.448;2023-09-19T13:11:50;19.34;73.55
71291;DHT22;59073;51.994;4.448;2023-09-19T13:14:22;19.39;74.66
71291;DHT22;59073;51.994;4.448;2023-09-19T13:19:42;19.53;74.27
71291;DHT22;59073;51.994;4.448;2023-09-19T13:25:12;19.56;73.68
71291;DHT22;59073;51.994;4.448;2023-09-19T13:27:45;19.60;73.07
71291;DHT22;59073;51.994;4.448;2023-09-19T13:30:12;19.46;72.82
71291;DHT22;59073;51.994;4.448;2023-09-19T13:32:38;19.54;73.36
71291;DHT22;59073;51.994;4.448;2023-09-19T13:35:06;19.46;73.65
71291;DHT22;59073;51.994;4.448;2023-09-19T13:37:34;19.39;75.27
71291;DHT22;59073;51.994;4.448;2023-09-19T13:40:01;19.20;75.90
71291;DHT22;59073;51.994;4.448;2023-09-19T13:42:26;19.05;75.99
71291;DHT22;59073;51.994;4.448;2023-09-19T13:44:55;19.03;75.89
71291;DHT22;59073;51.994;4.448;2023-09-19T13:47:21;19.11;75.43
71291;DHT22;59073;51.994;4.448;2023-09-19T13:49:50;19.08;75.02
71291;DHT22;59073;51.994;4.448;2023-09-19T13:52:18;19.12;74.71
71291;DHT22;59073;51.994;4.448;2023-09-19T13:54:44;19.16;74.50
71291;DHT22;59073;51.994;4.448;2023-09-19T13:57:09;19.16;74.66
71291;DHT22;59073;51.994;4.448;2023-09-19T13:59:35;19.13;75.09
71291;DHT22;59073;51.994;4.448;2023-09-19T14:02:00;19.06;75.12
71291;DHT22;59073;51.994;4.448;2023-09-19T14:04:28;18.88;78.78
71291;DHT22;59073;51.994;4.448;2023-09-19T14:06:54;18.36;81.50
71291;DHT22;59073;51.994;4.448;2023-09-19T14:09:19;17.99;82.01
71291;DHT22;59073;51.994;4.448;2023-09-19T14:11:46;17.85;83.96
71291;DHT22;59073;51.994;4.448;2023-09-19T14:14:13;17.87;84.48
71291;DHT22;59073;51.994;4.448;2023-09-19T14:16:39;17.92;84.72
71291;DHT22;59073;51.994;4.448;2023-09-19T14:19:07;17.90;84.78
71291;DHT22;59073;51.994;4.448;2023-09-19T14:21:33;17.96;84.36
71291;DHT22;59073;51.994;4.448;2023-09-19T14:23:58;18.13;84.33
71291;DHT22;59073;51.994;4.448;2023-09-19T14:26:24;18.10;83.01
71291;DHT22;59073;51.994;4.448;2023-09-19T14:28:49;18.16;82.75
71291;DHT22;59073;51.994;4.448;2023-09-19T14:31:15;18.13;82.56
71291;DHT22;59073;51.994;4.448;2023-09-19T14:33:40;18.18;81.22
71291;DHT22;59073;51.994;4.448;2023-09-19T14:36:09;18.21;80.79
71291;DHT22;59073;51.994;4.448;2023-09-19T14:38:37;18.31;80.74
71291;DHT22;59073;51.994;4.448;2023-09-19T14:41:05;18.37;79.95
71291;DHT22;59073;51.994;4.448;2023-09-19T14:43:31;18.44;79.44
71291;DHT22;59073;51.994;4.448;2023-09-19T14:46:02;18.34;79.32
71291;DHT22;59073;51.994;4.448;2023-09-19T14:48:28;18.40;78.45
71291;DHT22;59073;51.994;4.448;2023-09-19T14:50:53;18.57;78.85
71291;DHT22;59073;51.994;4.448;2023-09-19T14:53:20;18.48;78.60
71291;DHT22;59073;51.994;4.448;2023-09-19T14:55:46;18.52;78.89
71291;DHT22;59073;51.994;4.448;2023-09-19T14:58:13;18.55;78.70
71291;DHT22;59073;51.994;4.448;2023-09-19T15:00:39;18.45;79.55
71291;DHT22;59073;51.994;4.448;2023-09-19T15:03:04;18.41;79.14
71291;DHT22;59073;51.994;4.448;2023-09-19T15:05:30;18.48;79.10
71291;DHT22;59073;51.994;4.448;2023-09-19T15:07:56;18.52;78.40
71291;DHT22;59073;51.994;4.448;2023-09-19T15:10:22;18.47;77.97
71291;DHT22;59073;51.994;4.448;2023-09-19T15:12:48;18.58;78.42
71291;DHT22;59073;51.994;4.448;2023-09-19T15:15:14;18.61;77.75
71291;DHT22;59073;51.994;4.448;2023-09-19T15:17:39;18.69;77.76
71291;DHT22;59073;51.994;4.448;2023-09-19T15:20:06;18.69;77.25
71291;DHT22;59073;51.994;4.448;2023-09-19T15:22:35;18.72;77.22
71291;DHT22;59073;51.994;4.448;2023-09-19T15:25:02;18.87;77.87
71291;DHT22;59073;51.994;4.448;2023-09-19T15:27:29;18.68;77.93
71291;DHT22;59073;51.994;4.448;2023-09-19T15:29:56;18.74;78.35
71291;DHT22;59073;51.994;4.448;2023-09-19T15:32:24;18.61;79.11
71291;DHT22;59073;51.994;4.448;2023-09-19T15:34:49;18.41;80.37
71291;DHT22;59073;51.994;4.448;2023-09-19T15:37:14;18.27;81.33
71291;DHT22;59073;51.994;4.448;2023-09-19T15:39:40;18.17;82.00
71291;DHT22;59073;51.994;4.448;2023-09-19T15:42:06;18.20;82.36
71291;DHT22;59073;51.994;4.448;2023-09-19T15:44:31;18.16;82.21
71291;DHT22;59073;51.994;4.448;2023-09-19T15:46:58;18.09;82.76
71291;DHT22;59073;51.994;4.448;2023-09-19T15:49:23;18.00;82.79
71291;DHT22;59073;51.994;4.448;2023-09-19T15:51:49;18.12;82.91
71291;DHT22;59073;51.994;4.448;2023-09-19T15:54:15;18.06;82.84
71291;DHT22;59073;51.994;4.448;2023-09-19T15:56:42;18.13;82.36
71291;DHT22;59073;51.994;4.448;2023-09-19T15:59:07;18.10;81.85
71291;DHT22;59073;51.994;4.448;2023-09-19T16:01:34;18.13;81.27
71291;DHT22;59073;51.994;4.448;2023-09-19T16:03:59;18.09;81.78
71291;DHT22;59073;51.994;4.448;2023-09-19T16:06:27;18.16;81.26
71291;DHT22;59073;51.994;4.448;2023-09-19T16:08:58;18.21;81.21
71291;DHT22;59073;51.994;4.448;2023-09-19T16:11:26;18.26;80.86
71291;DHT22;59073;51.994;4.448;2023-09-19T16:13:52;18.21;80.51
71291;DHT22;59073;51.994;4.448;2023-09-19T16:16:20;18.17;80.83
71291;DHT22;59073;51.994;4.448;2023-09-19T16:18:51;18.30;80.95
71291;DHT22;59073;51.994;4.448;2023-09-19T16:21:18;18.23;81.26
71291;DHT22;59073;51.994;4.448;2023-09-19T16:23:49;18.26;81.26
71291;DHT22;59073;51.994;4.448;2023-09-19T16:26:16;18.14;81.36
71291;DHT22;59073;51.994;4.448;2023-09-19T16:28:45;18.18;81.78
71291;DHT22;59073;51.994;4.448;2023-09-19T16:31:10;18.18;81.75